sensor_id;sensor_type;location;lat;lon;timestamp;pressure;altitude;pressure_sealevel;temperature;humidity
13407;BME280;6774;48.208;10.766;2023-06-10T00:01:06;95125.91;;;17.20;75.10
13407;BME280;6774;48.208;10.766;2023-06-10T00:03:33;95122.63;;;17.18;75.20
13407;BME280;6774;48.208;10.766;2023-06-10T00:06:04;95127.66;;;17.15;75.38
13407;BME280;6774;48.208;10.766;2023-06-10T00:08:31;95123.59;;;17.12;75.45
13407;BME280;6774;48.208;10.766;2023-06-10T00:11:00;95125.72;;;17.10;75.73
13407;BME280;6774;48.208;10.766;2023-06-10T00:13:28;95126.16;;;17.07;75.95
13407;BME280;6774;48.208;10.766;2023-06-10T00:15:56;95134.66;;;17.04;76.27
13407;BME280;6774;48.208;10.766;2023-06-10T00:18:24;95129.78;;;17.01;76.13
13407;BME280;6774;48.208;10.766;2023-06-10T00:20:53;95134.22;;;16.95;76.86
13407;BME280;6774;48.208;10.766;2023-06-10T00:23:21;95126.56;;;16.87;76.66
13407;BME280;6774;48.208;10.766;2023-06-10T00:25:51;95124.84;;;16.81;76.67
13407;BME280;6774;48.208;10.766;2023-06-10T00:28:20;95129.28;;;16.75;76.97
13407;BME280;6774;48.208;10.766;2023-06-10T00:30:48;95131.00;;;16.70;77.15
13407;BME280;6774;48.208;10.766;2023-06-10T00:33:16;95129.50;;;16.62;77.74
13407;BME280;6774;48.208;10.766;2023-06-10T00:35:43;95130.78;;;16.60;78.23
13407;BME280;6774;48.208;10.766;2023-06-10T00:38:13;95136.56;;;16.57;78.15
13407;BME280;6774;48.208;10.766;2023-06-10T00:40:42;95132.88;;;16.58;78.06
13407;BME280;6774;48.208;10.766;2023-06-10T00:43:10;95135.28;;;16.59;77.73
13407;BME280;6774;48.208;10.766;2023-06-10T00:45:39;95130.53;;;16.61;77.58
13407;BME280;6774;48.208;10.766;2023-06-10T00:48:07;95134.00;;;16.62;77.47
13407;BME280;6774;48.208;10.766;2023-06-10T00:50:35;95138.28;;;16.63;77.42
13407;BME280;6774;48.208;10.766;2023-06-10T00:53:05;95135.53;;;16.69;77.30
13407;BME280;6774;48.208;10.766;2023-06-10T00:55:34;95140.38;;;16.72;77.37
13407;BME280;6774;48.208;10.766;2023-06-10T00:58:03;95135.53;;;16.69;77.43
13407;BME280;6774;48.208;10.766;2023-06-10T01:00:31;95132.16;;;16.62;77.53
13407;BME280;6774;48.208;10.766;2023-06-10T01:03:03;95134.16;;;16.55;77.30
13407;BME280;6774;48.208;10.766;2023-06-10T01:05:35;95136.69;;;16.50;77.55
13407;BME280;6774;48.208;10.766;2023-06-10T01:08:08;95134.72;;;16.45;77.68
13407;BME280;6774;48.208;10.766;2023-06-10T01:10:41;95136.00;;;16.43;77.87
13407;BME280;6774;48.208;10.766;2023-06-10T01:13:11;95138.91;;;16.41;77.91
13407;BME280;6774;48.208;10.766;2023-06-10T01:15:39;95138.56;;;16.38;78.38
13407;BME280;6774;48.208;10.766;2023-06-10T01:18:09;95133.69;;;16.35;78.50
13407;BME280;6774;48.208;10.766;2023-06-10T01:20:43;95141.91;;;16.33;78.46
13407;BME280;6774;48.208;10.766;2023-06-10T01:23:15;95146.19;;;16.34;78.92
13407;BME280;6774;48.208;10.766;2023-06-10T01:25:47;95143.75;;;16.33;78.89
13407;BME280;6774;48.208;10.766;2023-06-10T01:28:22;95137.63;;;16.32;79.17
13407;BME280;6774;48.208;10.766;2023-06-10T01:30:56;95141.09;;;16.33;79.14
13407;BME280;6774;48.208;10.766;2023-06-10T01:33:31;95146.31;;;16.28;79.15
13407;BME280;6774;48.208;10.766;2023-06-10T01:36:02;95142.50;;;16.24;78.71
13407;BME280;6774;48.208;10.766;2023-06-10T01:38:36;95146.19;;;16.23;79.03
13407;BME280;6774;48.208;10.766;2023-06-10T01:41:06;95143.19;;;16.19;79.32
13407;BME280;6774;48.208;10.766;2023-06-10T01:43:34;95145.06;;;16.18;79.42
13407;BME280;6774;48.208;10.766;2023-06-10T01:46:02;95150.81;;;16.15;79.42
13407;BME280;6774;48.208;10.766;2023-06-10T01:48:30;95153.38;;;16.10;79.57
13407;BME280;6774;48.208;10.766;2023-06-10T01:50:58;95148.50;;;16.07;79.43
13407;BME280;6774;48.208;10.766;2023-06-10T01:53:26;95156.38;;;16.02;79.66
13407;BME280;6774;48.208;10.766;2023-06-10T01:55:55;95155.81;;;16.00;79.50
13407;BME280;6774;48.208;10.766;2023-06-10T01:58:23;95151.97;;;15.96;79.58
13407;BME280;6774;48.208;10.766;2023-06-10T02:00:51;95157.75;;;15.93;79.51
13407;BME280;6774;48.208;10.766;2023-06-10T02:03:19;95161.47;;;15.92;79.55
13407;BME280;6774;48.208;10.766;2023-06-10T02:05:47;95157.19;;;15.91;79.96
13407;BME280;6774;48.208;10.766;2023-06-10T02:08:15;95159.84;;;15.91;80.17
13407;BME280;6774;48.208;10.766;2023-06-10T02:10:43;95153.56;;;15.85;80.43
13407;BME280;6774;48.208;10.766;2023-06-10T02:13:12;95163.25;;;15.80;80.36
13407;BME280;6774;48.208;10.766;2023-06-10T02:15:39;95161.66;;;15.79;80.72
13407;BME280;6774;48.208;10.766;2023-06-10T02:18:07;95159.69;;;15.74;80.92
13407;BME280;6774;48.208;10.766;2023-06-10T02:20:37;95155.41;;;15.73;81.09
13407;BME280;6774;48.208;10.766;2023-06-10T02:23:04;95159.31;;;15.71;81.35
13407;BME280;6774;48.208;10.766;2023-06-10T02:25:32;95160.34;;;15.70;81.59
13407;BME280;6774;48.208;10.766;2023-06-10T02:28:00;95161.63;;;15.67;81.53
13407;BME280;6774;48.208;10.766;2023-06-10T02:30:31;95162.44;;;15.68;81.55
13407;BME280;6774;48.208;10.766;2023-06-10T02:32:59;95176.19;;;15.64;81.38
13407;BME280;6774;48.208;10.766;2023-06-10T02:35:28;95175.59;;;15.62;81.31
13407;BME280;6774;48.208;10.766;2023-06-10T02:37:55;95163.53;;;15.60;81.16
13407;BME280;6774;48.208;10.766;2023-06-10T02:40:23;95171.75;;;15.58;81.28
13407;BME280;6774;48.208;10.766;2023-06-10T02:42:51;95177.06;;;15.58;81.14
13407;BME280;6774;48.208;10.766;2023-06-10T02:45:19;95167.69;;;15.56;81.43
13407;BME280;6774;48.208;10.766;2023-06-10T02:47:49;95174.25;;;15.53;81.51
13407;BME280;6774;48.208;10.766;2023-06-10T02:50:17;95174.16;;;15.48;81.86
13407;BME280;6774;48.208;10.766;2023-06-10T02:53:09;95174.00;;;15.43;81.69
13407;BME280;6774;48.208;10.766;2023-06-10T02:55:41;95179.63;;;15.35;82.03
13407;BME280;6774;48.208;10.766;2023-06-10T02:58:11;95175.34;;;15.34;82.20
13407;BME280;6774;48.208;10.766;2023-06-10T03:00:39;95169.91;;;15.29;82.17
13407;BME280;6774;48.208;10.766;2023-06-10T03:03:10;95175.47;;;15.27;81.87
13407;BME280;6774;48.208;10.766;2023-06-10T03:05:47;95168.16;;;15.23;82.15
13407;BME280;6774;48.208;10.766;2023-06-10T03:08:17;95171.03;;;15.21;82.22
13407;BME280;6774;48.208;10.766;2023-06-10T03:10:45;95168.59;;;15.20;82.46
13407;BME280;6774;48.208;10.766;2023-06-10T03:13:16;95169.03;;;15.17;82.68
13407;BME280;6774;48.208;10.766;2023-06-10T03:15:44;95173.31;;;15.18;82.88
13407;BME280;6774;48.208;10.766;2023-06-10T03:18:17;95176.41;;;15.15;83.48
13407;BME280;6774;48.208;10.766;2023-06-10T03:20:46;95174.81;;;15.14;83.57
13407;BME280;6774;48.208;10.766;2023-06-10T03:23:14;95183.81;;;15.13;83.36
13407;BME280;6774;48.208;10.766;2023-06-10T03:25:42;95185.44;;;15.14;83.29
13407;BME280;6774;48.208;10.766;2023-06-10T03:28:14;95181.16;;;15.13;83.41
13407;BME280;6774;48.208;10.766;2023-06-10T03:30:43;95186.00;;;15.16;83.35
13407;BME280;6774;48.208;10.766;2023-06-10T03:33:11;95187.44;;;15.18;83.40
13407;BME280;6774;48.208;10.766;2023-06-10T03:35:41;95193.56;;;15.19;83.35
13407;BME280;6774;48.208;10.766;2023-06-10T03:38:09;95194.16;;;15.21;83.70
13407;BME280;6774;48.208;10.766;2023-06-10T03:40:37;95189.41;;;15.23;83.33
13407;BME280;6774;48.208;10.766;2023-06-10T03:43:06;95198.19;;;15.23;83.10
13407;BME280;6774;48.208;10.766;2023-06-10T03:45:34;95203.28;;;15.25;83.53
13407;BME280;6774;48.208;10.766;2023-06-10T03:48:03;95197.53;;;15.28;83.41
13407;BME280;6774;48.208;10.766;2023-06-10T03:50:43;95206.66;;;15.32;83.18
13407;BME280;6774;48.208;10.766;2023-06-10T03:53:11;95212.94;;;15.38;83.13
13407;BME280;6774;48.208;10.766;2023-06-10T03:55:41;95214.34;;;15.40;83.00
13407;BME280;6774;48.208;10.766;2023-06-10T03:58:09;95210.78;;;15.46;82.81
13407;BME280;6774;48.208;10.766;2023-06-10T04:00:40;95214.03;;;15.48;82.86
13407;BME280;6774;48.208;10.766;2023-06-10T04:03:08;95227.09;;;15.50;82.53
13407;BME280;6774;48.208;10.766;2023-06-10T04:05:46;95223.06;;;15.47;82.39
13407;BME280;6774;48.208;10.766;2023-06-10T04:08:14;95218.53;;;15.48;82.30
13407;BME280;6774;48.208;10.766;2023-06-10T04:10:41;95224.66;;;15.48;82.10
13407;BME280;6774;48.208;10.766;2023-06-10T04:13:09;95213.56;;;15.51;82.15
13407;BME280;6774;48.208;10.766;2023-06-10T04:15:45;95222.94;;;15.54;81.85
13407;BME280;6774;48.208;10.766;2023-06-10T04:18:15;95217.19;;;15.57;81.98
13407;BME280;6774;48.208;10.766;2023-06-10T04:20:46;95219.19;;;15.61;81.70
13407;BME280;6774;48.208;10.766;2023-06-10T04:23:14;95227.31;;;15.67;81.79
13407;BME280;6774;48.208;10.766;2023-06-10T04:25:44;95225.38;;;15.74;81.76
13407;BME280;6774;48.208;10.766;2023-06-10T04:28:13;95225.06;;;15.82;81.55
13407;BME280;6774;48.208;10.766;2023-06-10T04:30:42;95221.47;;;15.88;81.43
13407;BME280;6774;48.208;10.766;2023-06-10T04:33:12;95228.09;;;15.97;81.48
13407;BME280;6774;48.208;10.766;2023-06-10T04:35:40;95226.81;;;16.00;81.70
13407;BME280;6774;48.208;10.766;2023-06-10T04:38:13;95233.91;;;16.06;81.59
13407;BME280;6774;48.208;10.766;2023-06-10T04:40:41;95228.47;;;16.12;82.88
13407;BME280;6774;48.208;10.766;2023-06-10T04:43:11;95230.47;;;16.29;82.18
13407;BME280;6774;48.208;10.766;2023-06-10T04:45:39;95230.59;;;16.45;82.16
13407;BME280;6774;48.208;10.766;2023-06-10T04:48:12;95227.97;;;16.57;82.25
13407;BME280;6774;48.208;10.766;2023-06-10T04:50:40;95230.97;;;16.72;82.20
13407;BME280;6774;48.208;10.766;2023-06-10T04:53:09;95233.41;;;16.86;81.68
13407;BME280;6774;48.208;10.766;2023-06-10T04:55:40;95233.16;;;16.99;81.26
13407;BME280;6774;48.208;10.766;2023-06-10T04:58:08;95237.69;;;17.10;81.13
13407;BME280;6774;48.208;10.766;2023-06-10T05:00:36;95243.91;;;17.16;80.52
13407;BME280;6774;48.208;10.766;2023-06-10T05:03:04;95236.13;;;17.26;80.39
13407;BME280;6774;48.208;10.766;2023-06-10T05:05:32;95239.81;;;17.37;80.16
13407;BME280;6774;48.208;10.766;2023-06-10T05:07:59;95246.97;;;17.48;79.91
13407;BME280;6774;48.208;10.766;2023-06-10T05:10:27;95247.63;;;17.55;80.03
13407;BME280;6774;48.208;10.766;2023-06-10T05:12:59;95251.66;;;17.69;79.70
13407;BME280;6774;48.208;10.766;2023-06-10T05:15:27;95250.81;;;17.80;79.46
13407;BME280;6774;48.208;10.766;2023-06-10T05:17:56;95248.69;;;17.94;79.56
13407;BME280;6774;48.208;10.766;2023-06-10T05:20:24;95238.19;;;18.04;78.77
13407;BME280;6774;48.208;10.766;2023-06-10T05:22:53;95241.84;;;18.15;78.77
13407;BME280;6774;48.208;10.766;2023-06-10T05:25:21;95242.34;;;18.29;78.44
13407;BME280;6774;48.208;10.766;2023-06-10T05:27:48;95250.75;;;18.37;78.21
13407;BME280;6774;48.208;10.766;2023-06-10T05:30:18;95261.84;;;18.46;77.85
13407;BME280;6774;48.208;10.766;2023-06-10T05:32:45;95254.81;;;18.57;77.42
13407;BME280;6774;48.208;10.766;2023-06-10T05:35:13;95259.75;;;18.65;77.22
13407;BME280;6774;48.208;10.766;2023-06-10T05:37:41;95256.69;;;18.73;76.57
13407;BME280;6774;48.208;10.766;2023-06-10T05:40:09;95249.41;;;18.85;76.60
13407;BME280;6774;48.208;10.766;2023-06-10T05:42:37;95253.75;;;18.91;76.40
13407;BME280;6774;48.208;10.766;2023-06-10T05:45:06;95263.22;;;18.99;75.76
13407;BME280;6774;48.208;10.766;2023-06-10T05:47:35;95262.53;;;19.09;75.89
13407;BME280;6774;48.208;10.766;2023-06-10T05:50:04;95261.31;;;19.16;75.99
13407;BME280;6774;48.208;10.766;2023-06-10T05:52:33;95268.75;;;19.31;75.57
13407;BME280;6774;48.208;10.766;2023-06-10T05:55:01;95267.56;;;19.44;75.08
13407;BME280;6774;48.208;10.766;2023-06-10T05:57:29;95266.25;;;19.46;75.06
13407;BME280;6774;48.208;10.766;2023-06-10T05:59:56;95259.91;;;19.52;75.08
13407;BME280;6774;48.208;10.766;2023-06-10T06:02:24;95262.81;;;19.68;74.76
13407;BME280;6774;48.208;10.766;2023-06-10T06:04:53;95262.91;;;19.78;74.01
13407;BME280;6774;48.208;10.766;2023-06-10T06:07:21;95264.03;;;19.82;74.00
13407;BME280;6774;48.208;10.766;2023-06-10T06:09:49;95263.28;;;19.86;73.58
13407;BME280;6774;48.208;10.766;2023-06-10T06:12:17;95264.94;;;19.93;73.85
13407;BME280;6774;48.208;10.766;2023-06-10T06:14:45;95255.16;;;20.03;73.28
13407;BME280;6774;48.208;10.766;2023-06-10T06:17:12;95262.13;;;20.04;73.77
13407;BME280;6774;48.208;10.766;2023-06-10T06:19:40;95255.25;;;20.13;72.83
13407;BME280;6774;48.208;10.766;2023-06-10T06:22:09;95258.28;;;20.22;73.10
13407;BME280;6774;48.208;10.766;2023-06-10T06:24:37;95261.34;;;20.36;72.90
13407;BME280;6774;48.208;10.766;2023-06-10T06:27:05;95253.72;;;20.50;72.35
13407;BME280;6774;48.208;10.766;2023-06-10T06:29:33;95256.78;;;20.63;71.68
13407;BME280;6774;48.208;10.766;2023-06-10T06:32:01;95256.81;;;20.68;71.19
13407;BME280;6774;48.208;10.766;2023-06-10T06:34:29;95258.72;;;20.73;71.23
13407;BME280;6774;48.208;10.766;2023-06-10T06:36:56;95267.41;;;20.85;71.63
13407;BME280;6774;48.208;10.766;2023-06-10T06:39:28;95261.88;;;21.02;71.50
13407;BME280;6774;48.208;10.766;2023-06-10T06:41:56;95261.44;;;21.15;71.05
13407;BME280;6774;48.208;10.766;2023-06-10T06:44:40;95267.72;;;21.36;70.74
13407;BME280;6774;48.208;10.766;2023-06-10T06:47:08;95268.03;;;21.40;69.54
13407;BME280;6774;48.208;10.766;2023-06-10T06:49:37;95268.34;;;21.53;69.28
13407;BME280;6774;48.208;10.766;2023-06-10T06:52:05;95264.94;;;21.68;68.89
13407;BME280;6774;48.208;10.766;2023-06-10T06:54:35;95268.16;;;21.70;68.94
13407;BME280;6774;48.208;10.766;2023-06-10T06:57:03;95267.34;;;21.75;69.25
13407;BME280;6774;48.208;10.766;2023-06-10T06:59:32;95271.44;;;21.93;68.70
13407;BME280;6774;48.208;10.766;2023-06-10T07:01:59;95269.63;;;22.08;68.41
13407;BME280;6774;48.208;10.766;2023-06-10T07:04:27;95282.53;;;22.11;67.11
13407;BME280;6774;48.208;10.766;2023-06-10T07:06:55;95281.78;;;22.26;67.23
13407;BME280;6774;48.208;10.766;2023-06-10T07:09:23;95281.53;;;22.33;66.28
13407;BME280;6774;48.208;10.766;2023-06-10T07:11:52;95281.28;;;22.50;66.27
13407;BME280;6774;48.208;10.766;2023-06-10T07:14:19;95274.81;;;22.56;66.40
13407;BME280;6774;48.208;10.766;2023-06-10T07:16:47;95283.97;;;22.65;66.69
13407;BME280;6774;48.208;10.766;2023-06-10T07:19:16;95282.88;;;22.81;65.74
13407;BME280;6774;48.208;10.766;2023-06-10T07:21:43;95285.59;;;22.96;65.46
13407;BME280;6774;48.208;10.766;2023-06-10T07:24:11;95281.28;;;23.11;63.86
13407;BME280;6774;48.208;10.766;2023-06-10T07:26:39;95282.06;;;23.16;64.13
13407;BME280;6774;48.208;10.766;2023-06-10T07:29:08;95279.63;;;23.30;64.04
13407;BME280;6774;48.208;10.766;2023-06-10T07:31:36;95283.06;;;23.46;63.91
13407;BME280;6774;48.208;10.766;2023-06-10T07:34:04;95276.63;;;23.42;63.61
13407;BME280;6774;48.208;10.766;2023-06-10T07:36:31;95282.78;;;23.63;62.91
13407;BME280;6774;48.208;10.766;2023-06-10T07:38:59;95277.34;;;23.73;63.28
13407;BME280;6774;48.208;10.766;2023-06-10T07:41:27;95286.44;;;23.92;62.86
13407;BME280;6774;48.208;10.766;2023-06-10T07:43:54;95279.59;;;24.10;62.29
13407;BME280;6774;48.208;10.766;2023-06-10T07:46:24;95289.50;;;24.25;60.61
13407;BME280;6774;48.208;10.766;2023-06-10T07:48:54;95279.41;;;24.46;60.96
13407;BME280;6774;48.208;10.766;2023-06-10T07:51:22;95278.03;;;24.53;60.89
13407;BME280;6774;48.208;10.766;2023-06-10T07:53:49;95282.91;;;24.51;60.32
13407;BME280;6774;48.208;10.766;2023-06-10T07:56:17;95277.44;;;24.61;60.07
13407;BME280;6774;48.208;10.766;2023-06-10T07:58:47;95279.56;;;24.59;59.02
13407;BME280;6774;48.208;10.766;2023-06-10T08:01:14;95285.75;;;24.65;58.83
13407;BME280;6774;48.208;10.766;2023-06-10T08:03:44;95284.84;;;24.80;58.15
13407;BME280;6774;48.208;10.766;2023-06-10T08:06:12;95287.91;;;25.02;57.54
13407;BME280;6774;48.208;10.766;2023-06-10T08:08:40;95280.94;;;25.25;57.39
13407;BME280;6774;48.208;10.766;2023-06-10T08:11:10;95278.97;;;25.31;56.74
13407;BME280;6774;48.208;10.766;2023-06-10T08:13:38;95270.25;;;25.39;57.82
13407;BME280;6774;48.208;10.766;2023-06-10T08:16:06;95268.13;;;25.60;56.58
13407;BME280;6774;48.208;10.766;2023-06-10T08:18:34;95271.19;;;25.53;55.04
13407;BME280;6774;48.208;10.766;2023-06-10T08:21:03;95268.88;;;25.65;55.75
13407;BME280;6774;48.208;10.766;2023-06-10T08:23:31;95266.59;;;25.77;56.57
13407;BME280;6774;48.208;10.766;2023-06-10T08:25:59;95268.09;;;25.89;56.04
13407;BME280;6774;48.208;10.766;2023-06-10T08:28:26;95260.34;;;26.01;54.46
13407;BME280;6774;48.208;10.766;2023-06-10T08:30:54;95270.75;;;26.31;54.67
13407;BME280;6774;48.208;10.766;2023-06-10T08:33:23;95261.44;;;26.43;54.24
13407;BME280;6774;48.208;10.766;2023-06-10T08:35:51;95259.66;;;26.71;54.19
13407;BME280;6774;48.208;10.766;2023-06-10T08:38:20;95266.41;;;26.87;52.33
13407;BME280;6774;48.208;10.766;2023-06-10T08:40:48;95262.59;;;26.88;53.37
13407;BME280;6774;48.208;10.766;2023-06-10T08:43:19;95262.47;;;27.12;51.76
13407;BME280;6774;48.208;10.766;2023-06-10T08:45:51;95270.78;;;27.34;50.60
13407;BME280;6774;48.208;10.766;2023-06-10T08:48:22;95261.63;;;27.30;50.68
13407;BME280;6774;48.208;10.766;2023-06-10T08:50:51;95260.44;;;27.36;50.90
13407;BME280;6774;48.208;10.766;2023-06-10T08:53:21;95257.72;;;27.64;51.38
13407;BME280;6774;48.208;10.766;2023-06-10T08:55:50;95259.13;;;27.89;51.06
13407;BME280;6774;48.208;10.766;2023-06-10T08:58:19;95258.31;;;27.88;50.63
13407;BME280;6774;48.208;10.766;2023-06-10T09:00:47;95258.63;;;28.00;50.36
13407;BME280;6774;48.208;10.766;2023-06-10T09:03:16;95262.41;;;28.27;50.90
13407;BME280;6774;48.208;10.766;2023-06-10T09:05:44;95256.69;;;28.28;48.78
13407;BME280;6774;48.208;10.766;2023-06-10T09:08:12;95250.03;;;28.21;49.51
13407;BME280;6774;48.208;10.766;2023-06-10T09:10:42;95253.44;;;28.40;51.13
13407;BME280;6774;48.208;10.766;2023-06-10T09:13:10;95258.38;;;28.60;48.40
13407;BME280;6774;48.208;10.766;2023-06-10T09:15:42;95261.63;;;28.63;48.86
13407;BME280;6774;48.208;10.766;2023-06-10T09:18:09;95259.16;;;28.75;47.75
13407;BME280;6774;48.208;10.766;2023-06-10T09:20:38;95260.75;;;28.76;48.56
13407;BME280;6774;48.208;10.766;2023-06-10T09:23:06;95255.81;;;28.55;47.21
13407;BME280;6774;48.208;10.766;2023-06-10T09:25:35;95253.41;;;28.54;48.07
13407;BME280;6774;48.208;10.766;2023-06-10T09:28:12;95252.28;;;28.55;48.59
13407;BME280;6774;48.208;10.766;2023-06-10T09:30:40;95245.06;;;28.73;49.29
13407;BME280;6774;48.208;10.766;2023-06-10T09:33:13;95255.06;;;28.86;48.66
13407;BME280;6774;48.208;10.766;2023-06-10T09:35:45;95261.06;;;28.97;48.12
13407;BME280;6774;48.208;10.766;2023-06-10T09:38:15;95251.31;;;28.73;47.54
13407;BME280;6774;48.208;10.766;2023-06-10T09:40:50;95258.72;;;28.81;47.61
13407;BME280;6774;48.208;10.766;2023-06-10T09:43:20;95248.44;;;28.92;47.54
13407;BME280;6774;48.208;10.766;2023-06-10T09:45:48;95252.63;;;29.29;48.37
13407;BME280;6774;48.208;10.766;2023-06-10T09:48:16;95250.91;;;29.42;48.08
13407;BME280;6774;48.208;10.766;2023-06-10T09:50:45;95244.63;;;29.55;46.84
13407;BME280;6774;48.208;10.766;2023-06-10T09:53:13;95248.09;;;29.95;45.93
13407;BME280;6774;48.208;10.766;2023-06-10T09:55:41;95245.41;;;30.04;46.13
13407;BME280;6774;48.208;10.766;2023-06-10T09:58:09;95253.31;;;30.32;46.31
13407;BME280;6774;48.208;10.766;2023-06-10T10:00:38;95251.22;;;30.11;45.91
13407;BME280;6774;48.208;10.766;2023-06-10T10:03:06;95247.50;;;30.16;45.60
13407;BME280;6774;48.208;10.766;2023-06-10T10:05:34;95240.03;;;30.39;46.25
13407;BME280;6774;48.208;10.766;2023-06-10T10:08:02;95238.25;;;30.34;45.80
13407;BME280;6774;48.208;10.766;2023-06-10T10:10:30;95232.34;;;30.41;45.95
13407;BME280;6774;48.208;10.766;2023-06-10T10:12:57;95240.03;;;30.30;46.55
13407;BME280;6774;48.208;10.766;2023-06-10T10:15:30;95237.94;;;30.62;45.57
13407;BME280;6774;48.208;10.766;2023-06-10T10:18:06;95243.56;;;30.48;44.78
13407;BME280;6774;48.208;10.766;2023-06-10T10:20:41;95225.75;;;30.33;44.85
13407;BME280;6774;48.208;10.766;2023-06-10T10:23:14;95236.16;;;30.22;45.46
13407;BME280;6774;48.208;10.766;2023-06-10T10:25:51;95245.75;;;30.11;46.08
13407;BME280;6774;48.208;10.766;2023-06-10T10:28:21;95239.03;;;30.17;44.95
13407;BME280;6774;48.208;10.766;2023-06-10T10:30:59;95242.75;;;30.56;47.71
13407;BME280;6774;48.208;10.766;2023-06-10T10:33:36;95237.22;;;30.04;44.33
13407;BME280;6774;48.208;10.766;2023-06-10T10:36:08;95242.88;;;29.59;45.24
13407;BME280;6774;48.208;10.766;2023-06-10T10:38:36;95245.84;;;29.89;45.72
13407;BME280;6774;48.208;10.766;2023-06-10T10:41:04;95240.94;;;30.08;45.25
13407;BME280;6774;48.208;10.766;2023-06-10T10:43:33;95225.31;;;30.66;46.07
13407;BME280;6774;48.208;10.766;2023-06-10T10:46:01;95234.72;;;30.94;44.93
13407;BME280;6774;48.208;10.766;2023-06-10T10:48:37;95232.34;;;30.93;45.10
13407;BME280;6774;48.208;10.766;2023-06-10T10:51:05;95233.69;;;31.33;44.64
13407;BME280;6774;48.208;10.766;2023-06-10T10:53:33;95231.13;;;31.37;42.57
13407;BME280;6774;48.208;10.766;2023-06-10T10:56:05;95237.19;;;31.72;42.74
13407;BME280;6774;48.208;10.766;2023-06-10T10:58:34;95230.09;;;31.88;42.11
13407;BME280;6774;48.208;10.766;2023-06-10T11:01:10;95230.25;;;31.92;45.27
13407;BME280;6774;48.208;10.766;2023-06-10T11:03:44;95231.53;;;32.15;44.05
13407;BME280;6774;48.208;10.766;2023-06-10T11:06:14;95224.84;;;32.54;44.46
13407;BME280;6774;48.208;10.766;2023-06-10T11:08:46;95223.25;;;32.33;43.99
13407;BME280;6774;48.208;10.766;2023-06-10T11:11:19;95222.63;;;31.68;43.16
13407;BME280;6774;48.208;10.766;2023-06-10T11:14:14;95221.94;;;31.41;43.35
13407;BME280;6774;48.208;10.766;2023-06-10T11:16:56;95225.84;;;31.32;43.65
13407;BME280;6774;48.208;10.766;2023-06-10T11:19:33;95230.88;;;30.95;43.89
13407;BME280;6774;48.208;10.766;2023-06-10T11:22:03;95231.97;;;31.03;45.01
13407;BME280;6774;48.208;10.766;2023-06-10T11:24:31;95224.88;;;31.36;44.47
13407;BME280;6774;48.208;10.766;2023-06-10T11:27:15;95226.88;;;31.01;44.75
13407;BME280;6774;48.208;10.766;2023-06-10T11:30:17;95230.41;;;30.84;45.34
13407;BME280;6774;48.208;10.766;2023-06-10T11:32:50;95226.56;;;30.85;46.01
13407;BME280;6774;48.208;10.766;2023-06-10T11:35:23;95220.44;;;31.06;44.57
13407;BME280;6774;48.208;10.766;2023-06-10T11:37:51;95220.88;;;31.17;43.92
13407;BME280;6774;48.208;10.766;2023-06-10T11:40:19;95222.00;;;31.24;44.88
13407;BME280;6774;48.208;10.766;2023-06-10T11:42:46;95226.72;;;31.45;44.79
13407;BME280;6774;48.208;10.766;2023-06-10T11:45:15;95220.06;;;31.16;44.31
13407;BME280;6774;48.208;10.766;2023-06-10T11:47:55;95235.84;;;31.02;44.83
13407;BME280;6774;48.208;10.766;2023-06-10T11:50:32;95226.72;;;30.89;44.95
13407;BME280;6774;48.208;10.766;2023-06-10T11:53:00;95219.31;;;30.98;44.14
13407;BME280;6774;48.208;10.766;2023-06-10T11:55:43;95217.03;;;31.09;43.08
13407;BME280;6774;48.208;10.766;2023-06-10T11:58:14;95220.06;;;31.16;44.18
13407;BME280;6774;48.208;10.766;2023-06-10T12:00:46;95213.97;;;31.36;43.85
13407;BME280;6774;48.208;10.766;2023-06-10T12:03:14;95212.44;;;31.01;44.01
13407;BME280;6774;48.208;10.766;2023-06-10T12:05:56;95210.66;;;30.96;44.61
13407;BME280;6774;48.208;10.766;2023-06-10T12:08:24;95217.78;;;30.37;45.93
13407;BME280;6774;48.208;10.766;2023-06-10T12:10:53;95222.06;;;30.20;46.03
13407;BME280;6774;48.208;10.766;2023-06-10T12:13:21;95225.69;;;29.81;45.88
13407;BME280;6774;48.208;10.766;2023-06-10T12:15:49;95217.94;;;29.66;46.51
13407;BME280;6774;48.208;10.766;2023-06-10T12:18:18;95220.00;;;29.60;47.09
13407;BME280;6774;48.208;10.766;2023-06-10T12:20:46;95216.69;;;29.41;47.21
13407;BME280;6774;48.208;10.766;2023-06-10T12:23:16;95226.88;;;29.27;46.99
13407;BME280;6774;48.208;10.766;2023-06-10T12:25:52;95215.81;;;29.23;47.77
13407;BME280;6774;48.208;10.766;2023-06-10T12:28:23;95214.22;;;29.22;49.07
13407;BME280;6774;48.208;10.766;2023-06-10T12:31:05;95205.44;;;28.94;47.50
13407;BME280;6774;48.208;10.766;2023-06-10T12:33:34;95206.66;;;28.88;47.87
13407;BME280;6774;48.208;10.766;2023-06-10T12:36:02;95205.81;;;28.79;48.65
13407;BME280;6774;48.208;10.766;2023-06-10T12:38:32;95204.91;;;29.14;48.65
13407;BME280;6774;48.208;10.766;2023-06-10T12:41:01;95202.25;;;29.63;48.78
13407;BME280;6774;48.208;10.766;2023-06-10T12:43:30;95198.75;;;29.71;46.16
13407;BME280;6774;48.208;10.766;2023-06-10T12:46:08;95198.53;;;29.50;46.50
13407;BME280;6774;48.208;10.766;2023-06-10T12:48:36;95193.19;;;29.36;46.56
13407;BME280;6774;48.208;10.766;2023-06-10T12:51:17;95198.59;;;29.28;47.16
13407;BME280;6774;48.208;10.766;2023-06-10T12:53:46;95191.91;;;29.42;46.97
13407;BME280;6774;48.208;10.766;2023-06-10T12:56:14;95192.09;;;29.46;46.55
13407;BME280;6774;48.208;10.766;2023-06-10T12:58:41;95179.72;;;29.31;46.19
13407;BME280;6774;48.208;10.766;2023-06-10T13:01:12;95193.50;;;29.04;47.57
13407;BME280;6774;48.208;10.766;2023-06-10T13:03:40;95195.06;;;28.96;47.85
13407;BME280;6774;48.208;10.766;2023-06-10T13:06:07;95186.78;;;29.01;49.11
13407;BME280;6774;48.208;10.766;2023-06-10T13:08:35;95198.50;;;28.88;49.10
13407;BME280;6774;48.208;10.766;2023-06-10T13:11:04;95189.28;;;28.89;48.51
13407;BME280;6774;48.208;10.766;2023-06-10T13:13:36;95184.84;;;28.93;48.50